sensor_id;sensor_type;location;lat;lon;timestamp;pressure;altitude;pressure_sealevel;temperature;humidity
66273;BME280;58450;52.150;4.466;2023-03-01T00:01:15;103244.53;;;2.03;100.00
66273;BME280;58450;52.150;4.466;2023-03-01T00:03:44;103247.19;;;2.03;100.00
66273;BME280;58450;52.150;4.466;2023-03-01T00:06:12;103248.03;;;2.04;100.00
66273;BME280;58450;52.150;4.466;2023-03-01T00:08:40;103244.53;;;2.03;100.00
66273;BME280;58450;52.150;4.466;2023-03-01T00:11:10;103247.25;;;2.02;100.00
66273;BME280;58450;52.150;4.466;2023-03-01T00:13:43;103248.28;;;1.99;100.00
66273;BME280;58450;52.150;4.466;2023-03-01T00:16:14;103235.94;;;1.98;100.00
66273;BME280;58450;52.150;4.466;2023-03-01T00:18:43;103237.78;;;1.96;100.00
66273;BME280;58450;52.150;4.466;2023-03-01T00:21:11;103232.53;;;1.95;100.00
66273;BME280;58450;52.150;4.466;2023-03-01T00:23:38;103232.47;;;1.96;100.00
66273;BME280;58450;52.150;4.466;2023-03-01T00:26:08;103237.78;;;1.96;100.00
66273;BME280;58450;52.150;4.466;2023-03-01T00:28:39;103228.00;;;1.97;100.00
66273;BME280;58450;52.150;4.466;2023-03-01T00:31:09;103220.84;;;1.99;100.00
66273;BME280;58450;52.150;4.466;2023-03-01T00:33:38;103229.69;;;1.99;100.00
66273;BME280;58450;52.150;4.466;2023-03-01T00:36:07;103224.38;;;1.99;100.00
66273;BME280;58450;52.150;4.466;2023-03-01T00:38:35;103226.00;;;2.02;100.00
66273;BME280;58450;52.150;4.466;2023-03-01T00:41:04;103222.56;;;2.00;100.00
66273;BME280;58450;52.150;4.466;2023-03-01T00:43:32;103220.91;;;1.97;100.00
66273;BME280;58450;52.150;4.466;2023-03-01T00:46:04;103230.66;;;1.97;100.00
66273;BME280;58450;52.150;4.466;2023-03-01T00:48:33;103221.72;;;1.99;100.00
66273;BME280;58450;52.150;4.466;2023-03-01T00:51:05;103232.41;;;1.98;100.00
66273;BME280;58450;52.150;4.466;2023-03-01T00:53:34;103225.50;;;1.94;100.00
66273;BME280;58450;52.150;4.466;2023-03-01T00:56:04;103227.31;;;1.93;100.00
66273;BME280;58450;52.150;4.466;2023-03-01T00:58:33;103218.47;;;1.92;100.00
66273;BME280;58450;52.150;4.466;2023-03-01T01:01:09;103231.97;;;1.88;100.00
66273;BME280;58450;52.150;4.466;2023-03-01T01:03:44;103216.03;;;1.88;100.00
66273;BME280;58450;52.150;4.466;2023-03-01T01:06:14;103216.03;;;1.88;100.00
66273;BME280;58450;52.150;4.466;2023-03-01T01:08:42;103218.59;;;1.89;100.00
66273;BME280;58450;52.150;4.466;2023-03-01T01:11:10;103218.75;;;1.86;100.00
66273;BME280;58450;52.150;4.466;2023-03-01T01:13:39;103213.53;;;1.85;100.00
66273;BME280;58450;52.150;4.466;2023-03-01T01:16:08;103212.44;;;1.89;100.00
66273;BME280;58450;52.150;4.466;2023-03-01T01:18:36;103208.13;;;1.86;100.00
66273;BME280;58450;52.150;4.466;2023-03-01T01:21:05;103207.41;;;1.83;100.00
66273;BME280;58450;52.150;4.466;2023-03-01T01:23:35;103215.44;;;1.81;100.00
66273;BME280;58450;52.150;4.466;2023-03-01T01:26:05;103203.97;;;1.81;100.00
66273;BME280;58450;52.150;4.466;2023-03-01T01:28:35;103203.97;;;1.81;100.00
66273;BME280;58450;52.150;4.466;2023-03-01T01:31:02;103209.44;;;1.77;100.00
66273;BME280;58450;52.150;4.466;2023-03-01T01:33:33;103195.34;;;1.75;100.00
66273;BME280;58450;52.150;4.466;2023-03-01T01:36:01;103197.22;;;1.73;100.00
66273;BME280;58450;52.150;4.466;2023-03-01T01:38:29;103196.50;;;1.70;100.00
66273;BME280;58450;52.150;4.466;2023-03-01T01:40:56;103192.13;;;1.69;100.00
66273;BME280;58450;52.150;4.466;2023-03-01T01:43:26;103185.16;;;1.66;100.00
66273;BME280;58450;52.150;4.466;2023-03-01T01:45:57;103175.47;;;1.65;100.00
66273;BME280;58450;52.150;4.466;2023-03-01T01:48:34;103172.81;;;1.65;100.00
66273;BME280;58450;52.150;4.466;2023-03-01T01:51:13;103168.59;;;1.61;100.00
66273;BME280;58450;52.150;4.466;2023-03-01T01:53:44;103156.34;;;1.58;100.00
66273;BME280;58450;52.150;4.466;2023-03-01T01:56:17;103164.34;;;1.57;100.00
66273;BME280;58450;52.150;4.466;2023-03-01T01:58:46;103160.09;;;1.53;100.00
66273;BME280;58450;52.150;4.466;2023-03-01T02:01:15;103155.72;;;1.52;100.00
66273;BME280;58450;52.150;4.466;2023-03-01T02:03:46;103155.69;;;1.53;100.00
66273;BME280;58450;52.150;4.466;2023-03-01T02:06:19;103152.22;;;1.51;100.00
66273;BME280;58450;52.150;4.466;2023-03-01T02:08:57;103165.56;;;1.50;100.00
66273;BME280;58450;52.150;4.466;2023-03-01T02:11:29;103162.91;;;1.50;100.00
66273;BME280;58450;52.150;4.466;2023-03-01T02:13:58;103157.72;;;1.46;100.00
66273;BME280;58450;52.150;4.466;2023-03-01T02:16:26;103152.50;;;1.45;100.00
66273;BME280;58450;52.150;4.466;2023-03-01T02:18:56;103151.72;;;1.43;100.00
66273;BME280;58450;52.150;4.466;2023-03-01T02:21:35;103148.31;;;1.39;100.00
66273;BME280;58450;52.150;4.466;2023-03-01T02:24:12;103153.72;;;1.38;100.00
66273;BME280;58450;52.150;4.466;2023-03-01T02:26:52;103145.81;;;1.36;100.00
66273;BME280;58450;52.150;4.466;2023-03-01T02:29:25;103150.19;;;1.37;100.00
66273;BME280;58450;52.150;4.466;2023-03-01T02:31:57;103149.34;;;1.37;100.00
66273;BME280;58450;52.150;4.466;2023-03-01T02:34:28;103150.19;;;1.37;100.00
66273;BME280;58450;52.150;4.466;2023-03-01T02:37:01;103144.88;;;1.37;100.00
66273;BME280;58450;52.150;4.466;2023-03-01T02:39:34;103136.06;;;1.37;100.00
66273;BME280;58450;52.150;4.466;2023-03-01T02:42:11;103142.22;;;1.37;100.00
66273;BME280;58450;52.150;4.466;2023-03-01T02:44:43;103141.44;;;1.35;100.00
66273;BME280;58450;52.150;4.466;2023-03-01T02:47:10;103137.84;;;1.36;100.00
66273;BME280;58450;52.150;4.466;2023-03-01T02:49:38;103136.13;;;1.35;100.00
66273;BME280;58450;52.150;4.466;2023-03-01T02:52:20;103134.34;;;1.36;100.00
66273;BME280;58450;52.150;4.466;2023-03-01T02:54:59;103134.41;;;1.34;100.00
66273;BME280;58450;52.150;4.466;2023-03-01T02:57:32;103134.50;;;1.32;100.00
66273;BME280;58450;52.150;4.466;2023-03-01T03:00:06;103126.53;;;1.32;100.00
66273;BME280;58450;52.150;4.466;2023-03-01T03:02:37;103124.91;;;1.30;100.00
66273;BME280;58450;52.150;4.466;2023-03-01T03:05:07;103119.66;;;1.28;100.00
66273;BME280;58450;52.150;4.466;2023-03-01T03:07:38;103113.63;;;1.25;100.00
66273;BME280;58450;52.150;4.466;2023-03-01T03:10:09;103119.72;;;1.27;100.00
66273;BME280;58450;52.150;4.466;2023-03-01T03:12:38;103110.97;;;1.25;100.00
66273;BME280;58450;52.150;4.466;2023-03-01T03:15:09;103111.91;;;1.24;100.00
66273;BME280;58450;52.150;4.466;2023-03-01T03:17:39;103101.31;;;1.24;100.00
66273;BME280;58450;52.150;4.466;2023-03-01T03:20:10;103112.03;;;1.21;100.00
66273;BME280;58450;52.150;4.466;2023-03-01T03:22:39;103113.03;;;1.18;100.00
66273;BME280;58450;52.150;4.466;2023-03-01T03:25:08;103105.16;;;1.16;100.00
66273;BME280;58450;52.150;4.466;2023-03-01T03:27:40;103104.41;;;1.13;100.00
66273;BME280;58450;52.150;4.466;2023-03-01T03:30:16;103100.97;;;1.11;100.00
66273;BME280;58450;52.150;4.466;2023-03-01T03:32:46;103100.19;;;1.09;100.00
66273;BME280;58450;52.150;4.466;2023-03-01T03:35:19;103100.31;;;1.06;100.00
66273;BME280;58450;52.150;4.466;2023-03-01T03:37:48;103098.53;;;1.06;100.00
66273;BME280;58450;52.150;4.466;2023-03-01T03:40:32;103098.47;;;1.08;100.00
66273;BME280;58450;52.150;4.466;2023-03-01T03:43:02;103102.13;;;1.05;100.00
66273;BME280;58450;52.150;4.466;2023-03-01T03:45:31;103105.56;;;1.07;100.00
66273;BME280;58450;52.150;4.466;2023-03-01T03:47:59;103099.34;;;1.08;100.00
66273;BME280;58450;52.150;4.466;2023-03-01T03:50:27;103093.28;;;1.05;100.00
66273;BME280;58450;52.150;4.466;2023-03-01T03:52:55;103089.84;;;1.02;100.00
66273;BME280;58450;52.150;4.466;2023-03-01T03:55:22;103094.16;;;1.05;100.00
66273;BME280;58450;52.150;4.466;2023-03-01T03:57:53;103092.50;;;1.02;100.00
66273;BME280;58450;52.150;4.466;2023-03-01T04:00:24;103091.66;;;1.02;100.00
66273;BME280;58450;52.150;4.466;2023-03-01T04:02:53;103079.25;;;1.02;100.00
66273;BME280;58450;52.150;4.466;2023-03-01T04:05:22;103090.84;;;1.00;100.00
66273;BME280;58450;52.150;4.466;2023-03-01T04:07:50;103088.22;;;1.00;100.00
66273;BME280;58450;52.150;4.466;2023-03-01T04:10:27;103085.56;;;1.00;100.00
66273;BME280;58450;52.150;4.466;2023-03-01T04:12:56;103093.50;;;1.00;100.00
66273;BME280;58450;52.150;4.466;2023-03-01T04:15:24;103087.28;;;1.01;100.00
66273;BME280;58450;52.150;4.466;2023-03-01T04:17:55;103093.44;;;1.01;100.00
66273;BME280;58450;52.150;4.466;2023-03-01T04:20:25;103089.13;;;0.99;100.00
66273;BME280;58450;52.150;4.466;2023-03-01T04:22:57;103086.53;;;0.97;100.00
66273;BME280;58450;52.150;4.466;2023-03-01T04:25:34;103077.88;;;0.94;100.00
66273;BME280;58450;52.150;4.466;2023-03-01T04:28:01;103076.28;;;0.90;100.00
66273;BME280;58450;52.150;4.466;2023-03-01T04:30:29;103079.16;;;0.85;100.00
66273;BME280;58450;52.150;4.466;2023-03-01T04:33:04;103078.28;;;0.84;100.00
66273;BME280;58450;52.150;4.466;2023-03-01T04:35:32;103081.84;;;0.83;100.00
66273;BME280;58450;52.150;4.466;2023-03-01T04:38:00;103077.56;;;0.81;100.00
66273;BME280;58450;52.150;4.466;2023-03-01T04:40:27;103076.69;;;0.80;100.00
66273;BME280;58450;52.150;4.466;2023-03-01T04:42:55;103067.91;;;0.80;100.00
66273;BME280;58450;52.150;4.466;2023-03-01T04:45:23;103074.13;;;0.79;100.00
66273;BME280;58450;52.150;4.466;2023-03-01T04:47:51;103067.91;;;0.80;100.00
66273;BME280;58450;52.150;4.466;2023-03-01T04:50:20;103066.03;;;0.82;100.00
66273;BME280;58450;52.150;4.466;2023-03-01T04:52:49;103062.59;;;0.80;100.00
66273;BME280;58450;52.150;4.466;2023-03-01T04:55:17;103060.06;;;0.77;100.00
66273;BME280;58450;52.150;4.466;2023-03-01T04:57:45;103050.44;;;0.74;100.00
66273;BME280;58450;52.150;4.466;2023-03-01T05:00:14;103043.44;;;0.73;100.00
66273;BME280;58450;52.150;4.466;2023-03-01T05:02:49;103038.22;;;0.71;100.00
66273;BME280;58450;52.150;4.466;2023-03-01T05:05:23;103040.91;;;0.70;100.00
66273;BME280;58450;52.150;4.466;2023-03-01T05:07:54;103046.44;;;0.65;100.00
66273;BME280;58450;52.150;4.466;2023-03-01T05:10:24;103044.84;;;0.61;100.00
66273;BME280;58450;52.150;4.466;2023-03-01T05:12:52;103053.78;;;0.58;100.00
66273;BME280;58450;52.150;4.466;2023-03-01T05:15:20;103053.91;;;0.55;100.00
66273;BME280;58450;52.150;4.466;2023-03-01T05:17:51;103044.44;;;0.50;100.00
66273;BME280;58450;52.150;4.466;2023-03-01T05:20:21;103045.41;;;0.47;100.00
66273;BME280;58450;52.150;4.466;2023-03-01T05:22:50;103049.00;;;0.46;100.00
66273;BME280;58450;52.150;4.466;2023-03-01T05:25:18;103041.97;;;0.45;100.00
66273;BME280;58450;52.150;4.466;2023-03-01T05:27:47;103035.75;;;0.46;100.00
66273;BME280;58450;52.150;4.466;2023-03-01T05:30:15;103028.72;;;0.45;100.00
66273;BME280;58450;52.150;4.466;2023-03-01T05:32:45;103030.47;;;0.46;100.00
66273;BME280;58450;52.150;4.466;2023-03-01T05:35:16;103029.47;;;0.49;100.00
66273;BME280;58450;52.150;4.466;2023-03-01T05:37:47;103023.31;;;0.48;100.00
66273;BME280;58450;52.150;4.466;2023-03-01T05:40:17;103022.50;;;0.46;100.00
66273;BME280;58450;52.150;4.466;2023-03-01T05:42:47;103017.38;;;0.43;100.00
66273;BME280;58450;52.150;4.466;2023-03-01T05:45:17;103014.56;;;0.46;100.00
66273;BME280;58450;52.150;4.466;2023-03-01T05:47:46;103021.59;;;0.47;100.00
66273;BME280;58450;52.150;4.466;2023-03-01T05:50:17;103014.78;;;0.41;100.00
66273;BME280;58450;52.150;4.466;2023-03-01T05:52:49;103007.97;;;0.36;100.00
66273;BME280;58450;52.150;4.466;2023-03-01T05:55:20;103001.63;;;0.40;100.00
66273;BME280;58450;52.150;4.466;2023-03-01T05:57:48;103012.91;;;0.43;100.00
66273;BME280;58450;52.150;4.466;2023-03-01T06:00:18;103001.31;;;0.46;100.00
66273;BME280;58450;52.150;4.466;2023-03-01T06:02:49;103001.25;;;0.48;100.00
66273;BME280;58450;52.150;4.466;2023-03-01T06:05:17;103000.59;;;0.42;100.00
66273;BME280;58450;52.150;4.466;2023-03-01T06:07:45;102997.97;;;0.42;100.00
66273;BME280;58450;52.150;4.466;2023-03-01T06:10:14;103001.47;;;0.43;100.00
66273;BME280;58450;52.150;4.466;2023-03-01T06:12:43;102998.03;;;0.41;100.00
66273;BME280;58450;52.150;4.466;2023-03-01T06:15:11;103000.69;;;0.41;100.00
66273;BME280;58450;52.150;4.466;2023-03-01T06:17:42;103002.41;;;0.42;100.00
66273;BME280;58450;52.150;4.466;2023-03-01T06:20:13;103000.69;;;0.41;100.00
66273;BME280;58450;52.150;4.466;2023-03-01T06:22:43;103002.47;;;0.40;100.00
66273;BME280;58450;52.150;4.466;2023-03-01T06:25:12;103003.38;;;0.39;100.00
66273;BME280;58450;52.150;4.466;2023-03-01T06:27:43;103000.69;;;0.41;100.00
66273;BME280;58450;52.150;4.466;2023-03-01T06:30:13;103011.16;;;0.44;100.00
66273;BME280;58450;52.150;4.466;2023-03-01T06:32:43;103010.00;;;0.50;100.00
66273;BME280;58450;52.150;4.466;2023-03-01T06:35:12;103009.78;;;0.54;100.00
66273;BME280;58450;52.150;4.466;2023-03-01T06:37:44;103005.28;;;0.56;100.00
66273;BME280;58450;52.150;4.466;2023-03-01T06:40:12;103001.72;;;0.57;100.00
66273;BME280;58450;52.150;4.466;2023-03-01T06:42:46;103003.44;;;0.58;100.00
66273;BME280;58450;52.150;4.466;2023-03-01T06:45:16;103005.94;;;0.62;100.00
66273;BME280;58450;52.150;4.466;2023-03-01T06:47:46;103006.28;;;0.54;100.00
66273;BME280;58450;52.150;4.466;2023-03-01T06:50:14;103010.25;;;0.64;100.00
66273;BME280;58450;52.150;4.466;2023-03-01T06:52:42;103002.97;;;0.69;100.00
66273;BME280;58450;52.150;4.466;2023-03-01T06:55:11;103011.50;;;0.76;100.00
66273;BME280;58450;52.150;4.466;2023-03-01T06:57:39;103010.44;;;0.80;100.00
66273;BME280;58450;52.150;4.466;2023-03-01T07:00:09;103013.81;;;0.84;100.00
66273;BME280;58450;52.150;4.466;2023-03-01T07:02:38;103017.25;;;0.86;100.00
66273;BME280;58450;52.150;4.466;2023-03-01T07:05:06;103016.03;;;0.93;100.00
66273;BME280;58450;52.150;4.466;2023-03-01T07:07:33;103014.63;;;1.05;100.00
66273;BME280;58450;52.150;4.466;2023-03-01T07:10:01;103018.44;;;1.18;100.00
66273;BME280;58450;52.150;4.466;2023-03-01T07:12:28;103008.31;;;1.27;100.00
66273;BME280;58450;52.150;4.466;2023-03-01T07:14:56;103015.81;;;1.36;100.00
66273;BME280;58450;52.150;4.466;2023-03-01T07:17:25;103009.22;;;1.45;100.00
66273;BME280;58450;52.150;4.466;2023-03-01T07:19:52;103008.69;;;1.56;100.00
66273;BME280;58450;52.150;4.466;2023-03-01T07:22:20;103006.09;;;1.73;100.00
66273;BME280;58450;52.150;4.466;2023-03-01T07:24:47;103011.13;;;1.97;100.00
66273;BME280;58450;52.150;4.466;2023-03-01T07:27:14;103006.38;;;2.21;100.00
66273;BME280;58450;52.150;4.466;2023-03-01T07:29:42;103007.91;;;2.43;100.00
66273;BME280;58450;52.150;4.466;2023-03-01T07:32:10;103011.41;;;2.61;100.00
66273;BME280;58450;52.150;4.466;2023-03-01T07:34:39;103013.25;;;2.77;100.00
66273;BME280;58450;52.150;4.466;2023-03-01T07:37:06;103011.16;;;3.00;100.00
66273;BME280;58450;52.150;4.466;2023-03-01T07:39:34;103008.44;;;3.33;100.00
66273;BME280;58450;52.150;4.466;2023-03-01T07:42:01;103010.09;;;3.66;100.00
66273;BME280;58450;52.150;4.466;2023-03-01T07:44:29;103006.16;;;4.04;100.00
66273;BME280;58450;52.150;4.466;2023-03-01T07:46:56;103011.03;;;4.42;100.00
66273;BME280;58450;52.150;4.466;2023-03-01T07:49:24;103021.72;;;4.71;100.00
66273;BME280;58450;52.150;4.466;2023-03-01T07:51:53;103017.03;;;5.04;100.00
66273;BME280;58450;52.150;4.466;2023-03-01T07:54:22;103011.56;;;5.35;100.00
66273;BME280;58450;52.150;4.466;2023-03-01T07:56:49;103016.00;;;5.76;100.00
66273;BME280;58450;52.150;4.466;2023-03-01T07:59:17;103010.59;;;6.31;100.00
66273;BME280;58450;52.150;4.466;2023-03-01T08:01:44;103003.97;;;6.88;100.00
66273;BME280;58450;52.150;4.466;2023-03-01T08:04:12;103004.81;;;7.39;100.00
66273;BME280;58450;52.150;4.466;2023-03-01T08:06:39;103005.00;;;8.09;100.00
66273;BME280;58450;52.150;4.466;2023-03-01T08:09:08;103001.63;;;8.77;100.00
66273;BME280;58450;52.150;4.466;2023-03-01T08:11:35;103007.38;;;9.50;100.00
66273;BME280;58450;52.150;4.466;2023-03-01T08:14:03;102988.09;;;10.20;100.00
66273;BME280;58450;52.150;4.466;2023-03-01T08:16:30;103007.03;;;10.82;100.00
66273;BME280;58450;52.150;4.466;2023-03-01T08:19:03;102999.09;;;11.31;100.00
66273;BME280;58450;52.150;4.466;2023-03-01T08:21:32;102989.91;;;11.73;100.00
66273;BME280;58450;52.150;4.466;2023-03-01T08:24:00;102991.75;;;12.12;100.00
66273;BME280;58450;52.150;4.466;2023-03-01T08:26:30;102989.16;;;12.30;100.00
66273;BME280;58450;52.150;4.466;2023-03-01T08:28:57;102985.06;;;12.74;100.00
66273;BME280;58450;52.150;4.466;2023-03-01T08:31:28;102984.69;;;13.14;100.00
66273;BME280;58450;52.150;4.466;2023-03-01T08:33:59;102985.53;;;13.43;100.00
66273;BME280;58450;52.150;4.466;2023-03-01T08:36:30;102981.38;;;13.67;96.02
66273;BME280;58450;52.150;4.466;2023-03-01T08:38:59;102989.50;;;13.67;89.90
66273;BME280;58450;52.150;4.466;2023-03-01T08:41:27;102988.16;;;13.89;85.93
66273;BME280;58450;52.150;4.466;2023-03-01T08:43:57;102980.41;;;13.94;83.91
66273;BME280;58450;52.150;4.466;2023-03-01T08:46:26;102975.59;;;14.06;82.18
66273;BME280;58450;52.150;4.466;2023-03-01T08:48:54;102962.28;;;14.39;79.08
66273;BME280;58450;52.150;4.466;2023-03-01T08:51:22;102973.28;;;14.72;75.83
66273;BME280;58450;52.150;4.466;2023-03-01T08:53:50;102984.94;;;14.99;71.33
66273;BME280;58450;52.150;4.466;2023-03-01T08:56:18;102979.41;;;15.26;69.47
66273;BME280;58450;52.150;4.466;2023-03-01T08:58:48;102984.03;;;15.42;66.94
66273;BME280;58450;52.150;4.466;2023-03-01T09:01:18;102989.81;;;15.63;64.06
66273;BME280;58450;52.150;4.466;2023-03-01T09:03:46;102980.66;;;15.64;62.19
66273;BME280;58450;52.150;4.466;2023-03-01T09:06:14;102987.78;;;15.82;61.88
66273;BME280;58450;52.150;4.466;2023-03-01T09:08:44;102986.63;;;15.93;60.17
66273;BME280;58450;52.150;4.466;2023-03-01T09:11:16;102987.63;;;15.92;59.27
66273;BME280;58450;52.150;4.466;2023-03-01T09:13:47;102985.94;;;15.91;57.72
66273;BME280;58450;52.150;4.466;2023-03-01T09:16:17;102983.22;;;15.91;56.97
66273;BME280;58450;52.150;4.466;2023-03-01T09:18:48;102979.84;;;15.97;56.86
66273;BME280;58450;52.150;4.466;2023-03-01T09:21:18;102988.66;;;15.99;55.92
66273;BME280;58450;52.150;4.466;2023-03-01T09:23:47;102980.50;;;16.16;55.95
66273;BME280;58450;52.150;4.466;2023-03-01T09:26:18;102975.03;;;16.32;54.80
66273;BME280;58450;52.150;4.466;2023-03-01T09:28:50;102973.13;;;16.49;54.58
66273;BME280;58450;52.150;4.466;2023-03-01T09:31:21;102976.69;;;16.58;53.38
66273;BME280;58450;52.150;4.466;2023-03-01T09:33:51;102969.28;;;16.75;52.76
66273;BME280;58450;52.150;4.466;2023-03-01T09:36:22;102969.00;;;16.62;52.38
66273;BME280;58450;52.150;4.466;2023-03-01T09:38:51;102963.41;;;16.63;51.58
66273;BME280;58450;52.150;4.466;2023-03-01T09:41:36;102960.81;;;16.70;51.80
66273;BME280;58450;52.150;4.466;2023-03-01T09:44:18;102974.38;;;16.78;51.81
66273;BME280;58450;52.150;4.466;2023-03-01T09:46:54;102969.03;;;16.93;50.59
66273;BME280;58450;52.150;4.466;2023-03-01T09:49:25;102966.25;;;17.10;50.77
66273;BME280;58450;52.150;4.466;2023-03-01T09:51:59;102955.94;;;17.05;49.75
66273;BME280;58450;52.150;4.466;2023-03-01T09:54:31;102958.81;;;17.04;49.61
66273;BME280;58450;52.150;4.466;2023-03-01T09:57:13;102958.41;;;16.75;49.71
66273;BME280;58450;52.150;4.466;2023-03-01T09:59:56;102946.59;;;16.60;48.67
66273;BME280;58450;52.150;4.466;2023-03-01T10:02:39;102950.72;;;16.87;48.90
66273;BME280;58450;52.150;4.466;2023-03-01T10:05:23;102958.63;;;16.74;48.85
66273;BME280;58450;52.150;4.466;2023-03-01T10:08:06;102957.47;;;16.51;47.65
66273;BME280;58450;52.150;4.466;2023-03-01T10:11:19;102946.88;;;16.25;46.80
66273;BME280;58450;52.150;4.466;2023-03-01T10:13:52;102949.91;;;16.30;47.52
66273;BME280;58450;52.150;4.466;2023-03-01T10:16:32;102952.03;;;16.60;45.68
66273;BME280;58450;52.150;4.466;2023-03-01T10:19:12;102944.47;;;16.38;46.43
66273;BME280;58450;52.150;4.466;2023-03-01T10:21:45;102939.03;;;16.78;45.62
66273;BME280;58450;52.150;4.466;2023-03-01T10:24:15;102944.91;;;16.98;44.66
66273;BME280;58450;52.150;4.466;2023-03-01T10:26:53;102940.16;;;17.24;44.49
66273;BME280;58450;52.150;4.466;2023-03-01T10:29:26;102931.34;;;17.22;44.30
66273;BME280;58450;52.150;4.466;2023-03-01T10:31:59;102932.50;;;17.27;44.13
66273;BME280;58450;52.150;4.466;2023-03-01T10:34:29;102923.31;;;17.28;43.79
66273;BME280;58450;52.150;4.466;2023-03-01T10:37:01;102923.91;;;17.16;43.59
66273;BME280;58450;52.150;4.466;2023-03-01T10:39:37;102923.44;;;16.72;44.36
66273;BME280;58450;52.150;4.466;2023-03-01T10:42:26;102912.59;;;16.64;44.42
66273;BME280;58450;52.150;4.466;2023-03-01T10:44:56;102919.38;;;16.68;44.57
66273;BME280;58450;52.150;4.466;2023-03-01T10:47:26;102917.59;;;16.52;44.86
66273;BME280;58450;52.150;4.466;2023-03-01T10:49:59;102900.06;;;16.54;43.85
66273;BME280;58450;52.150;4.466;2023-03-01T10:52:31;102905.56;;;16.38;43.09
66273;BME280;58450;52.150;4.466;2023-03-01T10:55:04;102894.78;;;16.61;43.15
66273;BME280;58450;52.150;4.466;2023-03-01T10:57:50;102898.72;;;16.82;43.33
66273;BME280;58450;52.150;4.466;2023-03-01T11:00:45;102899.38;;;16.52;42.82
66273;BME280;58450;52.150;4.466;2023-03-01T11:03:18;102902.44;;;16.01;43.36
66273;BME280;58450;52.150;4.466;2023-03-01T11:05:57;102894.97;;;15.95;44.43
66273;BME280;58450;52.150;4.466;2023-03-01T11:08:40;102893.09;;;16.12;45.18
66273;BME280;58450;52.150;4.466;2023-03-01T11:11:20;102885.78;;;16.13;44.82
66273;BME280;58450;52.150;4.466;2023-03-01T11:13:59;102881.91;;;16.07;45.84
66273;BME280;58450;52.150;4.466;2023-03-01T11:16:34;102890.91;;;15.83;45.67
66273;BME280;58450;52.150;4.466;2023-03-01T11:19:19;102888.53;;;15.79;45.92
66273;BME280;58450;52.150;4.466;2023-03-01T11:21:57;102879.56;;;15.62;45.85
66273;BME280;58450;52.150;4.466;2023-03-01T11:24:37;102869.91;;;15.60;46.58
66273;BME280;58450;52.150;4.466;2023-03-01T11:27:16;102865.16;;;15.37;46.77
66273;BME280;58450;52.150;4.466;2023-03-01T11:29:49;102862.41;;;15.12;47.61
66273;BME280;58450;52.150;4.466;2023-03-01T11:32:24;102860.19;;;14.83;47.82
66273;BME280;58450;52.150;4.466;2023-03-01T11:35:02;102856.34;;;14.51;48.66
66273;BME280;58450;52.150;4.466;2023-03-01T11:37:40;102856.69;;;14.56;49.85
66273;BME280;58450;52.150;4.466;2023-03-01T11:40:23;102837.88;;;14.11;48.75
66273;BME280;58450;52.150;4.466;2023-03-01T11:43:09;102840.72;;;13.75;50.73
66273;BME280;58450;52.150;4.466;2023-03-01T11:45:53;102846.72;;;13.61;51.48
66273;BME280;58450;52.150;4.466;2023-03-01T11:48:44;102842.63;;;12.84;50.75
66273;BME280;58450;52.150;4.466;2023-03-01T11:51:24;102840.03;;;12.18;51.34
66273;BME280;58450;52.150;4.466;2023-03-01T11:54:09;102834.47;;;11.72;53.32
66273;BME280;58450;52.150;4.466;2023-03-01T11:56:48;102832.50;;;11.55;54.71
66273;BME280;58450;52.150;4.466;2023-03-01T11:59:54;102823.84;;;11.51;53.36
66273;BME280;58450;52.150;4.466;2023-03-01T12:06:28;102828.28;;;11.42;54.61
66273;BME280;58450;52.150;4.466;2023-03-01T12:09:11;102810.09;;;11.44;50.60
66273;BME280;58450;52.150;4.466;2023-03-01T12:11:59;102806.16;;;11.29;47.22
66273;BME280;58450;52.150;4.466;2023-03-01T12:14:47;102812.00;;;10.94;46.92
66273;BME280;58450;52.150;4.466;2023-03-01T12:17:32;102806.75;;;11.03;47.06
66273;BME280;58450;52.150;4.466;2023-03-01T12:20:19;102793.25;;;11.13;46.37
66273;BME280;58450;52.150;4.466;2023-03-01T12:23:05;102781.59;;;11.42;45.80
66273;BME280;58450;52.150;4.466;2023-03-01T12:26:02;102785.03;;;11.81;46.12
66273;BME280;58450;52.150;4.466;2023-03-01T12:28:51;102777.94;;;11.80;45.66
66273;BME280;58450;52.150;4.466;2023-03-01T12:31:47;102788.75;;;12.18;45.60
66273;BME280;58450;52.150;4.466;2023-03-01T12:34:35;102774.59;;;12.34;45.27
66273;BME280;58450;52.150;4.466;2023-03-01T12:37:22;102764.97;;;12.86;44.86
66273;BME280;58450;52.150;4.466;2023-03-01T12:40:16;102776.00;;;13.37;44.22
66273;BME280;58450;52.150;4.466;2023-03-01T12:43:13;102762.53;;;13.19;42.99
66273;BME280;58450;52.150;4.466;2023-03-01T12:46:01;102769.06;;;12.90;43.50
66273;BME280;58450;52.150;4.466;2023-03-01T12:48:48;102765.88;;;13.57;43.53
66273;BME280;58450;52.150;4.466;2023-03-01T12:51:24;102774.72;;;13.41;43.70
66273;BME280;58450;52.150;4.466;2023-03-01T12:53:57;102774.13;;;13.82;43.02
66273;BME280;58450;52.150;4.466;2023-03-01T12:56:32;102771.44;;;14.33;42.27
66273;BME280;58450;52.150;4.466;2023-03-01T12:59:12;102761.78;;;14.99;41.80
66273;BME280;58450;52.150;4.466;2023-03-01T13:01:49;102756.69;;;14.79;40.12
66273;BME280;58450;52.150;4.466;2023-03-01T13:04:33;102755.25;;;15.49;39.43
66273;BME280;58450;52.150;4.466;2023-03-01T13:07:19;102754.91;;;16.40;38.44
66273;BME280;58450;52.150;4.466;2023-03-01T13:10:02;102754.59;;;17.28;37.32
66273;BME280;58450;52.150;4.466;2023-03-01T13:12:46;102736.22;;;18.06;35.26
66273;BME280;58450;52.150;4.466;2023-03-01T13:15:32;102743.72;;;18.40;34.27
66273;BME280;58450;52.150;4.466;2023-03-01T13:18:03;102740.88;;;18.70;34.46
66273;BME280;58450;52.150;4.466;2023-03-01T13:20:53;102738.56;;;19.17;33.54
66273;BME280;58450;52.150;4.466;2023-03-01T13:23:28;102730.72;;;19.71;32.63